Surface weather observations from New York State from the past hour:

KALB 260851Z 18006KT 4SM BR OVC004 20/18 A2998 RMK AO2 SLP152 T02000183 56024=
KART 260856Z AUTO 19012G24KT 10SM OVC043 21/19 A2980 RMK AO2 RAE13 SLP089 P0000
 60002 T02110194 56033=
KBGM 260853Z AUTO 22010G17KT 10SM BKN011 OVC017 19/18 A2999 RMK AO2 CIG 008V012
 SLP150 T01890178 56010=
KBUF 260854Z 20011KT 10SM SCT028 BKN035 BKN050 22/20 A2981 RMK AO2 SLP090
 T02220200 56010 $=
KDKK 260853Z AUTO 19010KT 10SM BKN030 23/20 A2982 RMK AO2 SLP095 T02280200
 56017 $=
KDSV 260854Z AUTO 13007KT 10SM BKN032 21/19 A2988 RMK AO2 RAE06 SLP122 P0000
 60003 T02110189 56018=
KELM 260853Z AUTO 00000KT 10SM SCT019 BKN024 OVC100 20/18 A2993 RMK AO2 SLP130
 T02000183 56020=
KELZ 260856Z AUTO 20010KT 10SM OVC013 20/19 A2995 RMK AO2 RAE04B37E55 SLP133
 P0000 60008 T02000189 57015=
KFRG 260853Z AUTO 19007KT 6SM BR OVC003 22/22 A3005 RMK AO2 LTG DSNT E-S
 RAB51E53 SLP175 P0000 60003 T02220217 56021=
KFZY 260854Z AUTO 18008KT 10SM FEW075 BKN110 21/18 A2986 RMK AO2 SLP109
 T02110178 56023=
KGFL 260853Z AUTO 00000KT 1/4SM FG VV002 14/14 A2997 RMK AO2 RAB14E26 SLP152
 P0000 60000 T01390139 56015 $=
KGTB 260856Z AUTO 18013G20KT 10SM BKN037 BKN050 20/20 A2981 RMK AO2
 RAB00E16DZB16E17DZB23E32 SLPNO P0001 60006 T02040204 57035 TSNO $=
KHPN 260856Z 17003KT 3/4SM R16/6000VP6000FT -DZ BR VV001 21/21 A3004 RMK AO2
 DZB34RAB40E54 SLP168 P0000 60000 T02110211 56021=
KHTO 260855Z AUTO 19006KT 5SM -RA OVC003 21/21 A3006 RMK AO2 P0001 60015
 T02110207=
KHWV 260856Z AUTO 19009KT 5SM -RA BR OVC005 22/21 A3006 RMK AO2 LTG DSNT SW
 SLP178 P0044 60052 T02220211 56021=
KIAG 260853Z AUTO 21014G21KT 10SM BKN025 BKN032 BKN043 23/20 A2979 RMK AO2
 SLP084 T02280200 56013=
KISP 260856Z AUTO 21009G18KT 5SM -RA BR BKN004 BKN009 OVC029 22/22 A3005 RMK
 AO2 LTG DSNT SE AND S SLP176 P0005 60007 T02220222 56021=
KITH 260856Z AUTO 15010KT 10SM OVC016 19/18 A2994 RMK AO2 SLP134 T01940183
 56023=
KJFK 260851Z 17006KT 7SM OVC009 22/22 A3005 RMK AO2 LTG DSNT SE SLP175 60032
 T02170217 56023 $=
KJHW 260856Z AUTO 20009G15KT 10SM OVC010 20/19 A2990 RMK AO2 CIG 007V012 SLP123
 60000 T02000189 56014=
KLGA 260851Z 17007KT 10SM OVC009 23/22 A3003 RMK AO2 RAB41E50 TSE0757 SLP168
 P0000 60000 T02330217 56022=
KMSS 260853Z AUTO 20007KT 10SM -RA BKN031 BKN045 OVC065 20/19 A2980 RMK AO2
 RAE0759B32 SLP091 P0000 60009 T02000194 58033=
KMSV 260856Z AUTO 18005KT 6SM BR OVC003 19/19 A3006 RMK AO2 CIG 002V006 SLP178
 T01890189 56012=
KMTP 260854Z AUTO VRB04KT 22/22 A3008 RMK AO1 SLP186 P0003 60016 T02170217
 56018=
KNYC 260851Z AUTO 00000KT 8SM OVC010 23/22 A3006 RMK AO2 RAE0759B34E46 SLP169
 P0000 60000 T02280222 56023 $=
KOGS 260855Z AUTO 19008KT 160V220 10SM SCT009 SCT031 BKN047 19/18 A2979 RMK AO2
 T01910184=
KOLE 260855Z AUTO 22007KT 7SM OVC005 18/18 A2993 RMK AO2 LTG DSNT SW=
KPBG 260853Z AUTO 00000KT 10SM FEW038 17/16 A2987 RMK AO2 RAB0756E25 SLP114
 P0000 60000 T01670156 58029=
KPEO 260853Z AUTO 21010KT 10SM FEW075 SCT100 SCT110 21/19 A2988 RMK AO2 RAE53
 SLP113 P0003 60003 T02060189 56027=
KPOU 260853Z AUTO 00000KT 1/2SM FG VV002 16/15 A3001 RMK AO2 SLP158 60000
 T01560150 56017=
KRME 260853Z AUTO 08006KT 10SM FEW026 SCT055 OVC075 19/19 A2993 RMK AO2 SLP133
 60015 T01940189 56024=
KROC 260854Z 21012KT 10SM FEW060 BKN150 BKN180 23/20 A2983 RMK AO2 SLP099 60000
 T02280200 56016 $=
KSLK 260851Z AUTO 22012KT 10SM FEW013 SCT030 OVC049 17/17 A2989 RMK AO2 SLP119
 60002 T01720172 58026=
KSWF 260845Z 00000KT 1/2SM R09/1600FT FG OVC003 16/16 A3004=
KSYR 260854Z 19014KT 10SM FEW070 BKN100 22/19 A2988 RMK AO2 RAB19E29 SLP111
 P0000 60000 T02170194 56027 $=

Return to: Albany Weather Page

Return to: Department of Atmospheric and Environmental Sciences Homepage


Comments to daesweb@albany.edu